Time;durP1;ratioP1;P1;durP2;ratioP2;P2;SDS_P1;SDS_P2;PMS_P1;PMS_P2;Temp;Humidity;BMP_temperature;BMP_pressure;BME280_temperature;BME280_humidity;BME280_pressure;Samples;Min_cycle;Max_cycle;Signal;HPM_P1;HPM_P2
2023/03/30 00:01:13;;;;;;;2.42;1.17;;;19.90;58.10;;;;;;5054706;28;20044;-59
2023/03/30 00:03:42;;;;;;;5.38;1.13;;;19.80;58.00;;;;;;5036242;28;20598;-59
2023/03/30 00:06:07;;;;;;;3.42;1.27;;;19.90;58.00;;;;;;5054017;28;20391;-58
2023/03/30 00:08:33;;;;;;;2.60;1.60;;;19.80;58.00;;;;;;5054620;28;20041;-59
2023/03/30 00:11:04;;;;;;;2.13;1.30;;;19.80;58.00;;;;;;5053470;28;20140;-60
2023/03/30 00:13:30;;;;;;;3.35;1.27;;;19.80;58.00;;;;;;5054727;28;20045;-59
2023/03/30 00:15:55;;;;;;;3.70;1.35;;;19.80;58.00;;;;;;5053806;28;20060;-59
2023/03/30 00:18:21;;;;;;;2.63;1.42;;;19.80;58.00;;;;;;5054025;28;20130;-59
2023/03/30 00:20:50;;;;;;;2.35;1.25;;;19.80;58.00;;;;;;5054471;28;20262;-59
2023/03/30 00:23:16;;;;;;;4.80;1.48;;;19.80;58.00;;;;;;5053644;28;20040;-59
2023/03/30 00:25:42;;;;;;;2.35;1.10;;;19.80;58.00;;;;;;5036571;28;20048;-59
2023/03/30 00:28:07;;;;;;;2.72;1.20;;;19.80;58.00;;;;;;5054190;28;20044;-59
2023/03/30 00:30:33;;;;;;;2.00;1.00;;;19.80;58.00;;;;;;5053615;28;20033;-59
2023/03/30 00:32:59;;;;;;;4.38;1.20;;;19.80;58.00;;;;;;5053835;28;20189;-59
2023/03/30 00:35:25;;;;;;;4.85;1.20;;;19.70;57.90;;;;;;5053959;28;20041;-60
2023/03/30 00:37:51;;;;;;;2.78;1.30;;;19.70;58.00;;;;;;5053705;28;20124;-60
2023/03/30 00:40:19;;;;;;;3.15;1.30;;;19.80;58.00;;;;;;5036049;28;20116;-59
2023/03/30 00:42:44;;;;;;;2.08;1.25;;;19.70;57.90;;;;;;5054134;28;20052;-60
2023/03/30 00:45:20;;;;;;;2.72;1.30;;;19.70;57.90;;;;;;5034293;28;20045;-59
2023/03/30 00:48:16;;;;;;;4.80;1.35;;;19.70;57.90;;;;;;5035762;28;20041;-59
2023/03/30 00:50:45;;;;;;;3.53;1.30;;;19.70;57.90;;;;;;5036459;28;20041;-59
2023/03/30 00:53:35;;;;;;;3.33;1.23;;;19.70;57.90;;;;;;5019166;28;20499;-59
2023/03/30 00:56:01;;;;;;;3.28;1.48;;;19.70;57.90;;;;;;5053601;28;20045;-59
2023/03/30 00:58:26;;;;;;;1.90;1.02;;;19.70;57.90;;;;;;5018782;28;20102;-59
2023/03/30 01:00:53;;;;;;;3.88;1.40;;;19.70;57.90;;;;;;5036102;28;20123;-60
2023/03/30 01:03:24;;;;;;;2.90;1.10;;;19.70;58.00;;;;;;5053422;28;20049;-59
2023/03/30 01:05:50;;;;;;;2.38;1.00;;;19.70;57.90;;;;;;5019366;28;20041;-59
2023/03/30 01:08:17;;;;;;;2.88;1.10;;;19.70;57.90;;;;;;5035469;28;20075;-60
2023/03/30 01:10:43;;;;;;;2.28;1.20;;;19.70;57.90;;;;;;5053369;28;20049;-60
2023/03/30 01:13:09;;;;;;;3.03;1.33;;;19.70;57.90;;;;;;5034555;28;20059;-60
2023/03/30 01:15:37;;;;;;;2.35;1.23;;;19.70;57.90;;;;;;5053441;28;20053;-59
2023/03/30 01:18:09;;;;;;;2.28;1.30;;;19.60;57.90;;;;;;5019095;28;20045;-59
2023/03/30 01:21:22;;;;;;;2.72;1.23;;;19.60;57.90;;;;;;5034881;28;20132;-59
2023/03/30 01:23:48;;;;;;;2.63;1.30;;;19.60;57.90;;;;;;5005011;28;20049;-60
2023/03/30 01:26:13;;;;;;;3.10;1.42;;;19.60;57.90;;;;;;5052307;28;20064;-60
2023/03/30 01:28:56;;;;;;;3.03;1.30;;;19.60;57.90;;;;;;5035462;28;20388;-59
2023/03/30 01:31:30;;;;;;;2.05;1.20;;;19.60;57.90;;;;;;5019231;28;20073;-59
2023/03/30 01:34:06;;;;;;;2.65;1.13;;;19.60;57.90;;;;;;5052443;28;20063;-59
2023/03/30 01:36:58;;;;;;;3.20;1.20;;;19.60;57.90;;;;;;5052966;28;20508;-59
2023/03/30 01:39:43;;;;;;;3.47;1.38;;;19.60;57.90;;;;;;5034924;28;20086;-59
2023/03/30 01:42:20;;;;;;;2.90;1.00;;;19.60;57.90;;;;;;5034758;28;20542;-60
2023/03/30 01:44:49;;;;;;;2.58;1.27;;;19.60;57.90;;;;;;5053028;28;20086;-59
2023/03/30 01:47:42;;;;;;;2.38;1.38;;;19.60;58.00;;;;;;5052395;28;20102;-59
2023/03/30 01:50:14;;;;;;;2.05;1.20;;;19.60;57.90;;;;;;5037505;28;20052;-59
2023/03/30 01:52:59;;;;;;;3.45;1.20;;;19.60;57.90;;;;;;5019010;28;20097;-59
2023/03/30 01:55:36;;;;;;;2.70;1.20;;;19.60;57.90;;;;;;5051425;28;20099;-59
2023/03/30 01:58:16;;;;;;;2.55;1.02;;;19.60;57.90;;;;;;5035199;28;20037;-59
2023/03/30 02:00:42;;;;;;;2.53;0.98;;;19.50;57.90;;;;;;5035607;28;20061;-59
2023/03/30 02:03:13;;;;;;;2.78;1.27;;;19.50;57.90;;;;;;5017504;28;20052;-59
2023/03/30 02:05:38;;;;;;;2.60;1.27;;;19.60;57.90;;;;;;5031257;28;20365;-59
2023/03/30 02:08:07;;;;;;;2.47;1.00;;;19.50;57.90;;;;;;5052198;28;20517;-60
2023/03/30 02:10:33;;;;;;;2.58;1.05;;;19.50;57.90;;;;;;5049269;28;20488;-59
2023/03/30 02:12:59;;;;;;;2.60;1.13;;;19.50;57.90;;;;;;5054013;28;20495;-60
2023/03/30 02:15:28;;;;;;;2.13;1.00;;;19.50;57.90;;;;;;5071536;28;20045;-60
2023/03/30 02:17:54;;;;;;;2.20;1.10;;;19.50;58.00;;;;;;5038157;28;20079;-59
2023/03/30 02:20:19;;;;;;;2.58;1.48;;;19.50;57.90;;;;;;5053754;28;20037;-59
2023/03/30 02:22:45;;;;;;;2.88;1.40;;;19.50;58.00;;;;;;5071706;28;20060;-59
2023/03/30 02:25:11;;;;;;;1.35;0.90;;;19.50;57.90;;;;;;5037147;28;20525;-59
2023/03/30 02:27:37;;;;;;;2.58;1.15;;;19.50;57.90;;;;;;5054338;28;20028;-59
2023/03/30 02:30:06;;;;;;;2.17;1.10;;;19.50;57.90;;;;;;5042787;28;20480;-60
2023/03/30 02:32:43;;;;;;;2.50;1.13;;;19.50;57.90;;;;;;5052242;28;20041;-59
2023/03/30 02:35:14;;;;;;;2.05;1.00;;;19.50;57.90;;;;;;5046106;28;20044;-59
2023/03/30 02:38:06;;;;;;;2.20;0.95;;;19.50;57.90;;;;;;5054060;28;20080;-59
2023/03/30 02:40:50;;;;;;;3.35;1.30;;;19.50;57.90;;;;;;5071824;28;20045;-59
2023/03/30 02:43:18;;;;;;;3.78;1.17;;;19.50;57.90;;;;;;5071884;28;20051;-59
2023/03/30 02:45:48;;;;;;;;;;;19.40;57.90;;;;;;5071063;28;20051;-59
2023/03/30 02:48:41;;;;;;;2.55;1.13;;;19.40;57.90;;;;;;5037199;28;20360;-59
2023/03/30 02:51:23;;;;;;;2.17;1.10;;;19.40;58.00;;;;;;5038796;28;20048;-59
2023/03/30 02:54:14;;;;;;;2.45;1.10;;;19.40;57.90;;;;;;5054232;28;20044;-59
2023/03/30 02:57:03;;;;;;;2.55;1.20;;;19.40;58.00;;;;;;5021991;28;20045;-59
2023/03/30 02:59:55;;;;;;;3.25;1.10;;;19.40;57.90;;;;;;5056038;28;20036;-60
2023/03/30 03:02:29;;;;;;;3.13;1.20;;;19.50;58.00;;;;;;5053067;28;20060;-59
2023/03/30 03:04:54;;;;;;;2.83;0.95;;;19.40;58.00;;;;;;5053232;28;20036;-59
2023/03/30 03:07:20;;;;;;;2.47;1.10;;;19.50;58.00;;;;;;5055977;28;20059;-59
2023/03/30 03:09:46;;;;;;;2.13;1.10;;;19.50;58.00;;;;;;5057357;28;20044;-60
2023/03/30 03:12:11;;;;;;;2.80;1.00;;;19.50;58.00;;;;;;5074196;28;20051;-60
2023/03/30 03:14:37;;;;;;;1.48;0.85;;;19.50;58.00;;;;;;5057728;28;20418;-60
2023/03/30 03:17:03;;;;;;;3.97;1.00;;;19.50;58.00;;;;;;5075135;28;20048;-60
2023/03/30 03:19:29;;;;;;;2.40;0.88;;;19.50;58.00;;;;;;5071730;28;20045;-59
2023/03/30 03:21:55;;;;;;;2.15;0.95;;;19.50;57.90;;;;;;5055539;28;20090;-59
2023/03/30 03:24:20;;;;;;;2.00;0.98;;;19.60;58.00;;;;;;5055444;28;20037;-59
2023/03/30 03:26:46;;;;;;;1.67;1.00;;;19.50;58.00;;;;;;5054505;28;20102;-60
2023/03/30 03:29:11;;;;;;;1.73;0.90;;;19.50;58.00;;;;;;5055067;28;20045;-59
2023/03/30 03:31:37;;;;;;;2.58;1.10;;;19.50;58.00;;;;;;5075382;28;20040;-59
2023/03/30 03:34:03;;;;;;;2.03;1.00;;;19.60;58.10;;;;;;5056281;28;20044;-60
2023/03/30 03:36:29;;;;;;;2.08;0.95;;;19.60;58.00;;;;;;5056955;28;20051;-60
2023/03/30 03:38:55;;;;;;;1.65;0.90;;;19.60;58.00;;;;;;5075463;28;20076;-60
2023/03/30 03:41:20;;;;;;;2.28;1.00;;;19.60;58.00;;;;;;5057026;28;20073;-60
2023/03/30 03:43:46;;;;;;;3.15;1.20;;;19.70;58.00;;;;;;5055224;28;20045;-60
2023/03/30 03:46:13;;;;;;;2.10;1.02;;;19.60;58.00;;;;;;5055031;28;20119;-60
2023/03/30 03:48:38;;;;;;;2.40;1.00;;;19.60;58.00;;;;;;5054198;28;20052;-60
2023/03/30 03:51:04;;;;;;;3.15;1.23;;;19.70;58.00;;;;;;5054772;28;20045;-60
2023/03/30 03:53:30;;;;;;;2.25;0.85;;;19.70;58.00;;;;;;5037339;28;20048;-60
2023/03/30 03:55:55;;;;;;;1.83;1.00;;;19.70;58.00;;;;;;5054092;28;20085;-60
2023/03/30 03:58:21;;;;;;;1.77;0.90;;;19.70;58.00;;;;;;5054706;28;20051;-60
2023/03/30 04:00:47;;;;;;;2.35;1.00;;;19.70;58.00;;;;;;5059833;28;20040;-60
2023/03/30 04:03:12;;;;;;;3.22;0.95;;;19.80;58.00;;;;;;5073400;28;20068;-60
2023/03/30 04:05:38;;;;;;;1.83;0.90;;;19.70;57.90;;;;;;5064083;28;20067;-60
2023/03/30 04:08:04;;;;;;;1.90;1.02;;;19.70;57.90;;;;;;5035502;28;20041;-60
2023/03/30 04:10:30;;;;;;;2.25;0.90;;;19.70;57.90;;;;;;5054733;28;20053;-60
2023/03/30 04:12:56;;;;;;;2.35;0.95;;;19.80;58.00;;;;;;5033239;28;20057;-60
2023/03/30 04:15:22;;;;;;;2.33;1.00;;;19.80;58.00;;;;;;5033762;28;20052;-60
2023/03/30 04:17:48;;;;;;;3.15;1.08;;;19.80;58.00;;;;;;5034035;28;20073;-60
2023/03/30 04:20:14;;;;;;;2.35;1.00;;;19.80;58.00;;;;;;5033802;28;20042;-60
2023/03/30 04:22:40;;;;;;;1.80;0.88;;;19.80;57.90;;;;;;5033959;28;20042;-60
2023/03/30 04:25:10;;;;;;;2.15;0.90;;;19.80;57.90;;;;;;5034311;28;20041;-60
2023/03/30 04:27:36;;;;;;;1.67;0.88;;;19.80;57.90;;;;;;5034757;28;20045;-60
2023/03/30 04:30:05;;;;;;;2.13;0.90;;;19.80;57.90;;;;;;5033353;28;20042;-60
2023/03/30 04:32:33;;;;;;;1.73;0.85;;;19.90;57.90;;;;;;5034163;28;20409;-60
2023/03/30 04:35:04;;;;;;;1.73;0.95;;;19.90;57.90;;;;;;5032618;28;20053;-60
2023/03/30 04:37:30;;;;;;;2.70;0.77;;;19.90;57.90;;;;;;5032505;28;20493;-60
2023/03/30 04:39:58;;;;;;;1.58;0.90;;;19.90;57.90;;;;;;5034016;28;20052;-60
2023/03/30 04:42:29;;;;;;;3.47;1.30;;;19.90;57.90;;;;;;5033121;28;20495;-60
2023/03/30 04:44:56;;;;;;;1.25;0.80;;;19.90;57.90;;;;;;5033471;28;20393;-60
2023/03/30 04:47:23;;;;;;;1.77;0.88;;;19.90;57.90;;;;;;5033802;28;20074;-60
2023/03/30 04:49:49;;;;;;;1.60;0.80;;;19.90;57.90;;;;;;5034204;28;20048;-60
2023/03/30 04:52:14;;;;;;;2.05;0.90;;;19.90;57.90;;;;;;5031753;28;20396;-60
2023/03/30 04:54:40;;;;;;;2.08;0.90;;;19.90;57.90;;;;;;5033802;28;20045;-60
2023/03/30 04:57:06;;;;;;;1.90;0.93;;;20.00;58.00;;;;;;5033524;28;20045;-60
2023/03/30 04:59:31;;;;;;;1.60;0.80;;;19.90;57.90;;;;;;5033229;28;20550;-59
2023/03/30 05:01:57;;;;;;;2.13;0.90;;;20.00;58.00;;;;;;5033461;28;20049;-60
2023/03/30 05:04:23;;;;;;;1.88;0.75;;;20.00;58.00;;;;;;5031553;28;20495;-60
2023/03/30 05:06:48;;;;;;;2.03;0.80;;;20.00;57.90;;;;;;5033866;28;20049;-60
2023/03/30 05:09:14;;;;;;;1.85;0.82;;;20.00;57.90;;;;;;5032082;28;20428;-60
2023/03/30 05:11:40;;;;;;;1.63;0.80;;;20.00;57.90;;;;;;5040511;28;20144;-60
2023/03/30 05:14:06;;;;;;;2.15;0.80;;;20.00;57.90;;;;;;5050927;28;20517;-60
2023/03/30 05:16:31;;;;;;;1.67;0.90;;;20.00;57.90;;;;;;5053135;28;20041;-60
2023/03/30 05:18:57;;;;;;;2.65;0.90;;;20.00;57.90;;;;;;5051820;28;20086;-60
2023/03/30 05:21:22;;;;;;;2.13;0.80;;;20.00;57.90;;;;;;5053592;28;20093;-60
2023/03/30 05:23:48;;;;;;;1.95;0.80;;;20.00;57.90;;;;;;5035384;28;20073;-60
2023/03/30 05:26:14;;;;;;;1.95;0.90;;;20.00;57.90;;;;;;5052684;28;20033;-60
2023/03/30 05:28:41;;;;;;;1.73;0.90;;;20.00;57.90;;;;;;5035797;28;20488;-60
2023/03/30 05:31:07;;;;;;;1.52;0.90;;;20.00;57.90;;;;;;5052976;28;20063;-60
2023/03/30 05:33:32;;;;;;;1.45;0.70;;;20.00;57.90;;;;;;5052585;28;20048;-60
2023/03/30 05:35:58;;;;;;;2.50;1.23;;;20.00;57.90;;;;;;5053225;28;20090;-60
2023/03/30 05:38:23;;;;;;;1.70;0.90;;;20.00;57.90;;;;;;5035467;28;20389;-60
2023/03/30 05:40:52;;;;;;;2.45;0.90;;;20.00;57.90;;;;;;5034738;28;20099;-60
2023/03/30 05:43:18;;;;;;;1.77;0.90;;;20.00;57.90;;;;;;5053021;28;20044;-60
2023/03/30 05:45:44;;;;;;;2.72;1.00;;;20.00;57.90;;;;;;5053063;28;20496;-60
2023/03/30 05:48:10;;;;;;;1.45;0.80;;;20.00;57.90;;;;;;5051965;28;20036;-60
2023/03/30 05:50:35;;;;;;;1.80;0.98;;;20.00;57.90;;;;;;5053328;28;20048;-60
2023/03/30 05:53:01;;;;;;;2.03;1.02;;;20.00;57.90;;;;;;5052750;28;20033;-60
2023/03/30 05:55:26;;;;;;;1.95;0.80;;;20.00;57.90;;;;;;5052328;28;20496;-60
2023/03/30 05:57:52;;;;;;;1.35;0.70;;;20.00;57.90;;;;;;5053001;28;20048;-60
2023/03/30 06:00:20;;;;;;;1.17;0.70;;;20.00;57.90;;;;;;5052628;28;20519;-59
2023/03/30 06:02:45;;;;;;;2.53;0.95;;;20.00;57.90;;;;;;5052435;28;20112;-59
2023/03/30 06:05:11;;;;;;;1.83;0.90;;;20.00;57.90;;;;;;5052527;28;20148;-59
2023/03/30 06:07:36;;;;;;;1.65;0.80;;;19.90;57.80;;;;;;5052288;28;20106;-60
2023/03/30 06:10:03;;;;;;;1.67;0.70;;;19.90;57.90;;;;;;5052534;28;20033;-60
2023/03/30 06:12:29;;;;;;;2.00;0.80;;;20.00;57.90;;;;;;5052607;28;20061;-60
2023/03/30 06:14:55;;;;;;;1.67;0.70;;;19.90;57.90;;;;;;5051858;28;20045;-60
2023/03/30 06:17:20;;;;;;;2.08;0.70;;;19.90;57.90;;;;;;5052542;28;20044;-60
2023/03/30 06:19:46;;;;;;;1.55;0.80;;;19.90;57.90;;;;;;5052664;28;20045;-60
2023/03/30 06:22:13;;;;;;;1.67;0.82;;;19.90;57.90;;;;;;5051842;28;20128;-60
2023/03/30 06:24:38;;;;;;;1.98;0.95;;;19.90;57.90;;;;;;5052672;28;20127;-60
2023/03/30 06:27:04;;;;;;;2.15;0.80;;;19.90;57.90;;;;;;5052315;28;20045;-60
2023/03/30 06:29:29;;;;;;;2.00;1.00;;;20.00;58.00;;;;;;5051650;28;20481;-60
2023/03/30 06:31:55;;;;;;;3.22;1.05;;;19.90;58.00;;;;;;5052513;28;20094;-60
2023/03/30 06:34:21;;;;;;;2.35;0.90;;;19.90;57.90;;;;;;5052306;28;20039;-60
2023/03/30 06:36:46;;;;;;;1.85;0.80;;;19.90;57.90;;;;;;5051588;28;20044;-60
2023/03/30 06:39:12;;;;;;;3.35;0.95;;;20.00;58.00;;;;;;5034354;28;20065;-60
2023/03/30 06:41:38;;;;;;;1.63;0.80;;;19.90;57.90;;;;;;5059466;28;20036;-60
2023/03/30 06:44:04;;;;;;;1.90;0.90;;;20.00;58.00;;;;;;5059988;28;20039;-60
2023/03/30 06:46:29;;;;;;;2.83;0.98;;;20.00;58.00;;;;;;5078658;28;20549;-59
2023/03/30 06:48:55;;;;;;;1.98;0.80;;;20.00;57.90;;;;;;5061230;28;20429;-60
2023/03/30 06:51:20;;;;;;;1.80;0.82;;;20.00;58.00;;;;;;5076651;28;20488;-60
2023/03/30 06:53:46;;;;;;;2.60;0.70;;;20.00;58.00;;;;;;5079003;28;20064;-60
2023/03/30 06:56:11;;;;;;;2.28;0.98;;;20.00;58.00;;;;;;5078687;28;20570;-60
2023/03/30 06:58:37;;;;;;;1.83;1.00;;;20.00;57.90;;;;;;5071678;28;20400;-59
2023/03/30 07:01:10;;;;;;;2.15;0.90;;;20.00;57.90;;;;;;5058544;28;20404;-60
2023/03/30 07:03:36;;;;;;;2.75;0.90;;;20.00;58.00;;;;;;5058890;28;20056;-59
2023/03/30 07:06:02;;;;;;;5.68;1.02;;;20.00;57.90;;;;;;5058074;28;20088;-58
2023/03/30 07:08:28;;;;;;;1.33;0.60;;;20.00;58.00;;;;;;5041238;28;20048;-59
2023/03/30 07:10:54;;;;;;;4.50;0.90;;;20.00;58.00;;;;;;5058151;28;20041;-59
2023/03/30 07:13:20;;;;;;;2.40;0.90;;;20.00;58.00;;;;;;5058517;28;20400;-58
2023/03/30 07:15:46;;;;;;;2.97;1.00;;;20.00;58.00;;;;;;5059007;28;20060;-59
2023/03/30 07:18:11;;;;;;;5.40;0.80;;;20.10;58.00;;;;;;5057823;28;20040;-59
2023/03/30 07:20:37;;;;;;;3.28;1.00;;;20.10;58.00;;;;;;5058709;28;20044;-59
2023/03/30 07:23:03;;;;;;;3.08;0.90;;;20.10;58.00;;;;;;5057243;28;20087;-59
2023/03/30 07:25:28;;;;;;;1.80;0.95;;;20.10;58.00;;;;;;5057975;28;20072;-59
2023/03/30 07:27:54;;;;;;;3.42;0.90;;;20.10;58.10;;;;;;5058438;28;20396;-59
2023/03/30 07:30:21;;;;;;;2.05;0.85;;;20.10;58.00;;;;;;5058238;28;20450;-55
2023/03/30 07:32:48;;;;;;;3.72;1.00;;;20.10;58.10;;;;;;5058152;28;20045;-59
2023/03/30 07:35:14;;;;;;;3.60;1.02;;;20.10;58.20;;;;;;5048198;28;20395;-58
2023/03/30 07:37:40;;;;;;;1.88;0.95;;;20.10;58.30;;;;;;5078148;28;20043;-58
2023/03/30 07:40:07;;;;;;;3.35;0.80;;;20.10;58.40;;;;;;5077530;28;20048;-59
2023/03/30 07:42:33;;;;;;;1.63;0.90;;;20.10;58.50;;;;;;5078815;28;20045;-59
2023/03/30 07:44:58;;;;;;;4.28;1.00;;;20.10;58.60;;;;;;5078409;28;20055;-60
2023/03/30 07:47:25;;;;;;;1.52;0.75;;;20.20;58.70;;;;;;5059985;28;20071;-59
2023/03/30 07:49:51;;;;;;;2.33;0.90;;;20.20;58.80;;;;;;5060805;28;20045;-59
2023/03/30 07:52:16;;;;;;;3.35;0.90;;;20.20;58.80;;;;;;5060204;28;20054;-59
2023/03/30 07:54:43;;;;;;;3.35;0.90;;;20.20;58.90;;;;;;5055526;28;20040;-59
2023/03/30 07:57:11;;;;;;;6.03;1.15;;;20.20;58.80;;;;;;5071535;28;20488;-59
2023/03/30 07:59:37;;;;;;;4.65;0.90;;;20.20;58.90;;;;;;5052776;28;20504;-59
2023/03/30 08:02:04;;;;;;;2.83;0.82;;;20.20;59.00;;;;;;5063036;28;20055;-60
2023/03/30 08:04:30;;;;;;;2.03;1.10;;;20.30;59.10;;;;;;5065691;28;20041;-61
2023/03/30 08:06:56;;;;;;;5.63;0.80;;;20.30;59.20;;;;;;5055198;28;20056;-59
2023/03/30 08:09:22;;;;;;;3.50;0.90;;;20.30;59.30;;;;;;5053795;28;20124;-59
2023/03/30 08:11:47;;;;;;;2.80;1.00;;;20.30;59.30;;;;;;5054693;28;20132;-60
2023/03/30 08:14:13;;;;;;;2.92;1.00;;;20.30;59.30;;;;;;5054016;28;20041;-60
2023/03/30 08:16:38;;;;;;;2.95;1.00;;;20.30;59.30;;;;;;5054932;28;20048;-60
2023/03/30 08:19:04;;;;;;;3.33;1.38;;;20.30;59.40;;;;;;5054638;28;20041;-60
2023/03/30 08:21:30;;;;;;;3.72;0.93;;;20.30;59.50;;;;;;5053975;28;20095;-60
2023/03/30 08:23:57;;;;;;;3.10;1.00;;;20.30;59.50;;;;;;5054898;28;20150;-60
2023/03/30 08:26:27;;;;;;;5.60;0.90;;;20.30;59.50;;;;;;5054570;28;20438;-60
2023/03/30 08:28:53;;;;;;;2.13;0.90;;;20.40;59.50;;;;;;5054223;28;20120;-59
2023/03/30 08:31:19;;;;;;;2.67;0.90;;;20.30;59.50;;;;;;5054413;28;20167;-59
2023/03/30 08:33:45;;;;;;;4.20;1.10;;;20.40;59.50;;;;;;5036749;28;20052;-59
2023/03/30 08:36:14;;;;;;;2.60;0.85;;;20.40;59.60;;;;;;5053514;28;20044;-59
2023/03/30 08:38:40;;;;;;;3.83;0.88;;;20.40;59.50;;;;;;5061398;28;20048;-58
2023/03/30 08:41:20;;;;;;;2.90;0.90;;;20.40;59.60;;;;;;5055575;28;20430;-59
2023/03/30 08:43:56;;;;;;;4.20;1.20;;;20.30;59.60;;;;;;5043984;28;20397;-60
2023/03/30 08:46:21;;;;;;;5.75;1.30;;;20.40;59.60;;;;;;5056347;28;20472;-60
2023/03/30 08:48:47;;;;;;;3.20;0.95;;;20.40;59.70;;;;;;5026350;28;20059;-59
2023/03/30 08:51:28;;;;;;;4.00;0.98;;;20.40;60.30;;;;;;5034576;28;20132;-59
2023/03/30 08:54:18;;;;;;;4.65;1.30;;;20.40;59.80;;;;;;5054104;28;20071;-59
2023/03/30 08:57:14;;;;;;;2.92;1.10;;;20.40;59.70;;;;;;5035738;28;20400;-59
2023/03/30 08:59:43;;;;;;;4.15;1.20;;;20.40;59.80;;;;;;5053807;28;20090;-59
2023/03/30 09:02:28;;;;;;;4.65;1.20;;;20.40;59.80;;;;;;5035475;28;20045;-59
2023/03/30 09:05:26;;;;;;;3.97;1.00;;;20.40;59.70;;;;;;5035141;28;20051;-59
2023/03/30 09:07:55;;;;;;;;;;;20.40;59.80;;;;;;5035603;28;20060;-59
2023/03/30 09:10:20;;;;;;;3.45;1.00;;;20.40;59.80;;;;;;5035656;28;19924;-59
2023/03/30 09:12:55;;;;;;;4.05;1.20;;;20.40;59.70;;;;;;5035029;28;20083;-58
2023/03/30 09:15:29;;;;;;;4.25;0.90;;;20.40;59.80;;;;;;5035199;28;20053;-59
2023/03/30 09:18:16;;;;;;;4.47;1.00;;;20.40;59.80;;;;;;5051156;28;20111;-59
2023/03/30 09:20:42;;;;;;;4.57;1.10;;;20.40;59.70;;;;;;5065301;28;20044;-59
2023/03/30 09:23:11;;;;;;;4.20;1.38;;;20.50;59.80;;;;;;5054316;28;20039;-59
2023/03/30 09:25:43;;;;;;;4.85;1.20;;;20.50;59.70;;;;;;5047835;28;20064;-59
2023/03/30 09:28:28;;;;;;;4.72;1.20;;;20.50;59.70;;;;;;5034669;28;20037;-59
2023/03/30 09:31:14;;;;;;;4.43;1.17;;;20.50;59.70;;;;;;5036326;28;20037;-59
2023/03/30 09:34:03;;;;;;;5.38;1.25;;;20.50;59.70;;;;;;5037032;28;20045;-60
2023/03/30 09:36:53;;;;;;;4.28;1.25;;;20.50;59.50;;;;;;5052925;28;20063;-60
2023/03/30 09:39:28;;;;;;;5.28;1.40;;;20.50;59.40;;;;;;5042073;28;20043;-60
2023/03/30 09:42:17;;;;;;;3.65;1.20;;;20.50;59.30;;;;;;5045304;28;20040;-60
2023/03/30 09:44:48;;;;;;;5.95;1.63;;;20.50;59.20;;;;;;5034725;28;20537;-61
2023/03/30 09:47:37;;;;;;;6.00;1.60;;;20.50;59.10;;;;;;5035322;28;20049;-61
2023/03/30 09:50:10;;;;;;;6.18;1.25;;;20.50;58.90;;;;;;5052051;28;20098;-61
2023/03/30 09:52:37;;;;;;;6.68;1.40;;;20.50;59.00;;;;;;5051954;28;20499;-60
2023/03/30 09:55:21;;;;;;;8.00;1.40;;;20.50;59.10;;;;;;5034729;28;20048;-60
2023/03/30 09:57:47;;;;;;;5.85;1.38;;;20.50;59.10;;;;;;5052519;28;20044;-60
2023/03/30 10:00:30;;;;;;;7.25;1.77;;;20.50;59.30;;;;;;5067092;28;20479;-59
2023/03/30 10:03:00;;;;;;;4.35;1.50;;;20.50;59.30;;;;;;5054423;28;20503;-60
2023/03/30 10:05:26;;;;;;;4.97;1.13;;;20.50;59.40;;;;;;5069211;28;21331;-58
2023/03/30 10:07:59;;;;;;;7.40;1.63;;;20.50;59.40;;;;;;5017373;28;20041;-58
2023/03/30 10:10:25;;;;;;;7.78;1.58;;;20.50;59.40;;;;;;5038315;28;20049;-58
2023/03/30 10:12:53;;;;;;;6.82;1.42;;;20.50;59.30;;;;;;5056173;28;20057;-58
2023/03/30 10:15:20;;;;;;;5.20;1.20;;;20.50;59.40;;;;;;5033521;28;20083;-59
2023/03/30 10:17:50;;;;;;;4.68;1.35;;;20.50;59.40;;;;;;5016955;28;20044;-60
2023/03/30 10:20:51;;;;;;;7.00;1.70;;;20.50;59.30;;;;;;5001998;28;20063;-60
2023/03/30 10:23:18;;;;;;;4.68;1.55;;;20.50;59.30;;;;;;5020384;28;20309;-60
2023/03/30 10:25:45;;;;;;;7.22;1.63;;;20.50;59.30;;;;;;5052725;28;20044;-60
2023/03/30 10:28:20;;;;;;;6.50;1.40;;;20.50;59.30;;;;;;5033977;28;20438;-60
2023/03/30 10:31:07;;;;;;;6.53;1.80;;;20.50;59.30;;;;;;5034499;28;20045;-60
2023/03/30 10:33:38;;;;;;;9.95;1.77;;;20.60;59.50;;;;;;5034433;28;20397;-60
2023/03/30 10:36:04;;;;;;;6.75;1.40;;;20.60;59.50;;;;;;5017252;28;20095;-61
2023/03/30 10:38:31;;;;;;;7.38;1.45;;;20.60;59.40;;;;;;5022935;28;20514;-60
2023/03/30 10:41:01;;;;;;;5.20;1.25;;;20.50;59.40;;;;;;5071803;28;20041;-60
2023/03/30 10:43:29;;;;;;;6.13;1.75;;;20.50;59.40;;;;;;5063112;28;20476;-60
2023/03/30 10:45:55;;;;;;;7.57;1.77;;;20.50;59.30;;;;;;5031253;28;20051;-59
2023/03/30 10:48:42;;;;;;;7.15;1.75;;;20.50;59.40;;;;;;5047588;28;20396;-60
2023/03/30 10:51:44;;;;;;;4.22;1.65;;;20.50;59.30;;;;;;5033330;28;20072;-60
2023/03/30 10:54:16;;;;;;;7.55;1.77;;;20.50;59.30;;;;;;5011456;28;20064;-58
2023/03/30 10:57:05;;;;;;;7.68;1.90;;;20.50;59.40;;;;;;5016628;28;20045;-59
2023/03/30 10:59:47;;;;;;;8.02;1.63;;;20.50;59.40;;;;;;5051076;28;20086;-60
2023/03/30 11:02:40;;;;;;;6.18;1.10;;;20.50;59.40;;;;;;5021602;28;20103;-60
2023/03/30 11:05:11;;;;;;;6.85;1.50;;;20.50;59.40;;;;;;5037385;28;20041;-60
2023/03/30 11:07:42;;;;;;;6.13;1.50;;;20.50;59.40;;;;;;5021878;28;20044;-60
2023/03/30 11:10:19;;;;;;;5.70;1.38;;;20.50;59.30;;;;;;5070652;28;20048;-60
2023/03/30 11:12:48;;;;;;;8.23;1.45;;;20.50;59.20;;;;;;5037594;28;20106;-60
2023/03/30 11:15:17;;;;;;;6.28;1.33;;;20.50;59.30;;;;;;5053080;28;20389;-60
2023/03/30 11:18:02;;;;;;;4.22;1.27;;;20.50;59.20;;;;;;5037074;28;20048;-60
2023/03/30 11:20:31;;;;;;;5.63;1.60;;;20.50;59.10;;;;;;5056023;28;20044;-60
2023/03/30 11:23:05;;;;;;;4.95;1.23;;;20.50;59.10;;;;;;5071110;28;20052;-60
2023/03/30 11:25:38;;;;;;;8.05;1.50;;;20.50;59.00;;;;;;5070880;28;20518;-60
2023/03/30 11:28:37;;;;;;;6.00;1.48;;;20.50;59.00;;;;;;5072351;28;20049;-60
2023/03/30 11:31:12;;;;;;;5.90;1.55;;;20.50;59.00;;;;;;5071136;28;20044;-60
2023/03/30 11:33:43;;;;;;;7.57;1.98;;;20.50;59.00;;;;;;5073783;28;20079;-60
2023/03/30 11:36:17;;;;;;;8.27;1.40;;;20.50;58.90;;;;;;5056749;28;20052;-60
2023/03/30 11:38:51;;;;;;;8.18;1.73;;;20.50;58.90;;;;;;5034047;28;20048;-60
2023/03/30 11:41:41;;;;;;;7.45;1.70;;;20.50;59.40;;;;;;5050458;28;20579;-60
2023/03/30 11:44:10;;;;;;;10.48;1.50;;;20.50;58.70;;;;;;5049933;28;20060;-60
2023/03/30 11:47:03;;;;;;;9.55;1.60;;;20.50;58.60;;;;;;5054338;28;20087;-60
2023/03/30 11:49:41;;;;;;;6.18;1.73;;;20.50;59.30;;;;;;5055087;28;20069;-60
2023/03/30 11:52:22;;;;;;;7.72;1.40;;;20.40;58.50;;;;;;5037780;28;20053;-60
2023/03/30 11:55:02;;;;;;;6.72;1.50;;;20.40;58.40;;;;;;5075076;28;20526;-59
2023/03/30 11:57:47;;;;;;;10.27;2.00;;;20.40;58.40;;;;;;5057008;28;20438;-59
2023/03/30 12:00:25;;;;;;;4.93;1.83;;;20.40;58.50;;;;;;5070655;28;20052;-59
2023/03/30 12:02:57;;;;;;;4.70;1.23;;;20.40;58.40;;;;;;5054751;28;20052;-59
2023/03/30 12:05:34;;;;;;;6.38;1.55;;;20.40;58.40;;;;;;5054707;28;20131;-59
2023/03/30 12:08:16;;;;;;;6.97;1.67;;;20.40;58.30;;;;;;5039679;28;20425;-59
2023/03/30 12:10:43;;;;;;;5.95;1.20;;;20.40;58.30;;;;;;5058420;28;20067;-59
2023/03/30 12:13:13;;;;;;;8.02;1.80;;;20.40;58.40;;;;;;5020067;28;20512;-60
2023/03/30 12:15:54;;;;;;;5.72;1.35;;;20.40;58.30;;;;;;5036165;28;20412;-59
2023/03/30 12:18:22;;;;;;;7.22;1.48;;;20.30;58.20;;;;;;5053064;28;20110;-59
2023/03/30 12:20:50;;;;;;;;;;;20.30;58.20;;;;;;5054075;28;20049;-60
2023/03/30 12:23:21;;;;;;;9.15;1.63;;;20.30;58.20;;;;;;5069782;28;19974;-59
2023/03/30 12:25:51;;;;;;;4.93;1.20;;;20.30;58.30;;;;;;5053457;28;20041;-59
2023/03/30 12:28:18;;;;;;;7.63;1.25;;;20.30;58.30;;;;;;5052203;28;20319;-60
2023/03/30 12:30:55;;;;;;;4.82;1.05;;;20.40;58.30;;;;;;5054370;28;20045;-59
2023/03/30 12:33:49;;;;;;;5.65;1.02;;;20.40;58.30;;;;;;5054232;28;20052;-59
2023/03/30 12:36:25;;;;;;;5.03;1.52;;;20.40;58.20;;;;;;5051771;28;20451;-60
2023/03/30 12:38:51;;;;;;;6.15;1.15;;;20.40;58.20;;;;;;5053602;28;20037;-60
2023/03/30 12:41:21;;;;;;;9.30;1.40;;;20.40;58.20;;;;;;5053782;28;20049;-60
2023/03/30 12:44:03;;;;;;;5.55;1.30;;;20.40;58.10;;;;;;5052564;28;20057;-59
2023/03/30 12:46:57;;;;;;;4.60;1.30;;;20.40;58.10;;;;;;5052812;28;20049;-60
2023/03/30 12:49:44;;;;;;;7.50;1.45;;;20.40;58.10;;;;;;5053320;28;20068;-60
2023/03/30 12:52:16;;;;;;;6.85;1.35;;;20.40;58.10;;;;;;5052596;28;20420;-59
2023/03/30 12:54:48;;;;;;;4.75;1.30;;;20.40;58.10;;;;;;5052372;28;20515;-60
2023/03/30 12:57:21;;;;;;;5.95;1.17;;;20.40;58.10;;;;;;5051360;28;20045;-59
2023/03/30 13:00:06;;;;;;;6.38;1.33;;;20.30;58.00;;;;;;5042480;28;20038;-60
2023/03/30 13:02:54;;;;;;;8.48;1.83;;;20.40;58.00;;;;;;5001086;28;20110;-60
2023/03/30 13:05:29;;;;;;;7.13;1.35;;;20.40;58.10;;;;;;5032279;28;20053;-60
2023/03/30 13:07:54;;;;;;;6.20;1.23;;;20.30;58.00;;;;;;5051753;28;20086;-60